UAL3206 KIAH-KORD
Flight info
| Callsign | UAL3206 |
|---|---|
| Flight time | N/A |
| Altitude | 31000 |
| Route | INDIE8 TPAKK LIT J180 FTZ TRTLL6 |
| Aircraft | A21N/M-SDE2E3FGHIRWXY/LB1 |
Departure
| Time | 2026-05-05 03:24 |
|---|---|
| Airport | George Bush Intercontinental Airport (KIAH) |
Arrival
| Time | N/A |
|---|---|
| Airport | Chicago O'Hare International Airport (KORD) |
| Time | Latitude | Longitude | Altitude | Speed | Heading |
|---|---|---|---|---|---|
| 2026-05-05 02:45 | 29.98835 | -95.33363 | 104 ft | 0 kts | 179° |
| 2026-05-05 03:14 | 29.98838 | -95.33363 | 94 ft | 2 kts | 179° |
| 2026-05-05 03:14 | 29.98864 | -95.33363 | 102 ft | 4 kts | 179° |
| 2026-05-05 03:15 | 29.98885 | -95.33364 | 102 ft | 4 kts | 178° |
| 2026-05-05 03:15 | 29.98911 | -95.33363 | 103 ft | 4 kts | 199° |
| 2026-05-05 03:15 | 29.98924 | -95.33348 | 104 ft | 4 kts | 255° |
| 2026-05-05 03:15 | 29.98928 | -95.33318 | 104 ft | 4 kts | 271° |
| 2026-05-05 03:16 | 29.98928 | -95.33303 | 104 ft | 1 kts | 270° |
| 2026-05-05 03:17 | 29.98928 | -95.33318 | 104 ft | 4 kts | 270° |
| 2026-05-05 03:18 | 29.98929 | -95.33368 | 103 ft | 9 kts | 270° |
| 2026-05-05 03:18 | 29.98928 | -95.33453 | 103 ft | 12 kts | 269° |
| 2026-05-05 03:18 | 29.98941 | -95.33554 | 102 ft | 11 kts | 320° |
| 2026-05-05 03:18 | 29.99020 | -95.33557 | 103 ft | 14 kts | 4° |
| 2026-05-05 03:19 | 29.99089 | -95.33732 | 102 ft | 17 kts | 271° |
| 2026-05-05 03:19 | 29.99089 | -95.33872 | 102 ft | 18 kts | 269° |
| 2026-05-05 03:19 | 29.99089 | -95.34018 | 101 ft | 18 kts | 270° |
| 2026-05-05 03:20 | 29.99089 | -95.34168 | 102 ft | 19 kts | 270° |
| 2026-05-05 03:20 | 29.99089 | -95.34323 | 104 ft | 20 kts | 270° |
| 2026-05-05 03:20 | 29.99090 | -95.34483 | 103 ft | 20 kts | 270° |
| 2026-05-05 03:20 | 29.99090 | -95.34647 | 103 ft | 21 kts | 270° |
| 2026-05-05 03:21 | 29.99090 | -95.34812 | 102 ft | 21 kts | 269° |
| 2026-05-05 03:21 | 29.99089 | -95.34983 | 102 ft | 22 kts | 270° |
| 2026-05-05 03:21 | 29.99089 | -95.35157 | 101 ft | 22 kts | 271° |
| 2026-05-05 03:21 | 29.99089 | -95.35333 | 98 ft | 22 kts | 269° |
| 2026-05-05 03:22 | 29.99054 | -95.35474 | 99 ft | 16 kts | 205° |
| 2026-05-05 03:22 | 29.98950 | -95.35487 | 101 ft | 14 kts | 197° |
| 2026-05-05 03:22 | 29.98880 | -95.35567 | 102 ft | 15 kts | 236° |
| 2026-05-05 03:22 | 29.98827 | -95.35682 | 104 ft | 18 kts | 243° |
| 2026-05-05 03:23 | 29.98758 | -95.35762 | 107 ft | 14 kts | 172° |
| 2026-05-05 03:23 | 29.98716 | -95.35743 | 107 ft | 0 kts | 151° |
| 2026-05-05 03:23 | 29.98579 | -95.35659 | 106 ft | 50 kts | 152° |
| 2026-05-05 03:23 | 29.98109 | -95.35372 | 104 ft | 104 kts | 152° |
| 2026-05-05 03:24 | 29.97305 | -95.34878 | 105 ft | 154 kts | 152° |
| 2026-05-05 03:24 | 29.96374 | -95.34298 | 573 ft | 152 kts | 151° |
| 2026-05-05 03:24 | 29.95497 | -95.33625 | 1056 ft | 153 kts | 135° |
| 2026-05-05 03:24 | 29.95220 | -95.32437 | 1522 ft | 167 kts | 91° |
| 2026-05-05 03:25 | 29.95367 | -95.31061 | 1901 ft | 186 kts | 78° |
| 2026-05-05 03:25 | 29.96259 | -95.29908 | 2330 ft | 208 kts | 27° |
| 2026-05-05 03:25 | 29.97669 | -95.29414 | 2661 ft | 223 kts | 11° |
| 2026-05-05 03:25 | 29.99235 | -95.29103 | 3063 ft | 234 kts | 6° |
| 2026-05-05 03:26 | 30.00886 | -95.28828 | 3502 ft | 245 kts | 6° |
| 2026-05-05 03:26 | 30.02603 | -95.28487 | 3918 ft | 257 kts | 8° |
| 2026-05-05 03:26 | 30.04409 | -95.28060 | 4311 ft | 273 kts | 10° |
| 2026-05-05 03:26 | 30.06320 | -95.27578 | 4749 ft | 287 kts | 9° |
| 2026-05-05 03:27 | 30.08282 | -95.27132 | 5480 ft | 287 kts | 7° |
| 2026-05-05 03:27 | 30.10220 | -95.26746 | 6242 ft | 286 kts | 7° |
| 2026-05-05 03:27 | 30.12171 | -95.26321 | 6965 ft | 285 kts | 8° |
| 2026-05-05 03:27 | 30.14108 | -95.25829 | 7665 ft | 285 kts | 10° |
| 2026-05-05 03:28 | 30.16048 | -95.25323 | 8319 ft | 287 kts | 8° |
| 2026-05-05 03:28 | 30.18015 | -95.24853 | 8984 ft | 290 kts | 8° |
| 2026-05-05 03:28 | 30.20002 | -95.24387 | 9679 ft | 292 kts | 7° |
| 2026-05-05 03:28 | 30.22008 | -95.23919 | 10261 ft | 299 kts | 7° |
| 2026-05-05 03:29 | 30.24101 | -95.23435 | 10555 ft | 315 kts | 7° |
| 2026-05-05 03:29 | 30.26305 | -95.22925 | 10810 ft | 331 kts | 7° |
| 2026-05-05 03:29 | 30.28615 | -95.22365 | 11048 ft | 347 kts | 10° |
| 2026-05-05 03:29 | 30.30956 | -95.21572 | 11285 ft | 363 kts | 14° |
| 2026-05-05 03:30 | 30.33394 | -95.20637 | 11502 ft | 376 kts | 15° |
| 2026-05-05 03:30 | 30.35905 | -95.19652 | 11758 ft | 386 kts | 15° |
| 2026-05-05 03:30 | 30.38465 | -95.18646 | 12148 ft | 390 kts | 15° |
| 2026-05-05 03:30 | 30.41045 | -95.17634 | 12602 ft | 392 kts | 15° |
| 2026-05-05 03:31 | 30.43633 | -95.16614 | 13059 ft | 395 kts | 16° |
| 2026-05-05 03:31 | 30.46168 | -95.15341 | 13510 ft | 400 kts | 22° |
| 2026-05-05 03:31 | 30.48648 | -95.13852 | 13925 ft | 402 kts | 24° |
| 2026-05-05 03:31 | 30.51126 | -95.12315 | 14286 ft | 405 kts | 24° |
| 2026-05-05 03:32 | 30.53582 | -95.10787 | 14639 ft | 407 kts | 24° |
| 2026-05-05 03:32 | 30.56090 | -95.09228 | 14983 ft | 410 kts | 23° |
| 2026-05-05 03:32 | 30.58612 | -95.07662 | 15346 ft | 412 kts | 23° |
| 2026-05-05 03:32 | 30.61136 | -95.06058 | 15700 ft | 415 kts | 24° |
| 2026-05-05 03:33 | 30.63669 | -95.04430 | 16052 ft | 417 kts | 24° |
| 2026-05-05 03:33 | 30.66216 | -95.02791 | 16404 ft | 420 kts | 24° |
| 2026-05-05 03:33 | 30.68775 | -95.01143 | 16735 ft | 422 kts | 23° |
| 2026-05-05 03:33 | 30.71314 | -94.99508 | 17039 ft | 424 kts | 23° |
| 2026-05-05 03:34 | 30.73898 | -94.97843 | 17342 ft | 426 kts | 23° |
| 2026-05-05 03:34 | 30.76498 | -94.96168 | 17620 ft | 428 kts | 23° |
| 2026-05-05 03:34 | 30.79105 | -94.94488 | 17893 ft | 430 kts | 23° |
| 2026-05-05 03:34 | 30.81725 | -94.92798 | 18158 ft | 431 kts | 23° |
| 2026-05-05 03:35 | 30.84351 | -94.91103 | 18359 ft | 433 kts | 23° |
| 2026-05-05 03:35 | 30.86989 | -94.89398 | 18566 ft | 434 kts | 23° |
| 2026-05-05 03:35 | 30.89637 | -94.87688 | 18729 ft | 437 kts | 23° |
| 2026-05-05 03:35 | 30.92296 | -94.85967 | 18926 ft | 438 kts | 23° |
| 2026-05-05 03:36 | 30.94960 | -94.84243 | 19134 ft | 438 kts | 22° |
| 2026-05-05 03:36 | 30.97590 | -94.82539 | 19326 ft | 439 kts | 22° |
| 2026-05-05 03:36 | 31.00265 | -94.80805 | 19511 ft | 441 kts | 22° |
| 2026-05-05 03:36 | 31.02950 | -94.79064 | 19712 ft | 442 kts | 22° |
| 2026-05-05 03:37 | 31.05636 | -94.77321 | 19897 ft | 443 kts | 22° |
| 2026-05-05 03:37 | 31.08330 | -94.75572 | 20085 ft | 444 kts | 22° |
| 2026-05-05 03:37 | 31.11029 | -94.73820 | 20284 ft | 445 kts | 22° |
| 2026-05-05 03:37 | 31.13737 | -94.72059 | 20478 ft | 446 kts | 22° |
| 2026-05-05 03:38 | 31.16449 | -94.70296 | 20713 ft | 447 kts | 22° |
| 2026-05-05 03:38 | 31.19172 | -94.68523 | 20898 ft | 449 kts | 22° |
| 2026-05-05 03:38 | 31.21869 | -94.66766 | 21117 ft | 451 kts | 22° |
| 2026-05-05 03:38 | 31.24609 | -94.64980 | 21360 ft | 452 kts | 22° |
| 2026-05-05 03:39 | 31.27359 | -94.63185 | 21613 ft | 453 kts | 21° |
| 2026-05-05 03:39 | 31.30116 | -94.61386 | 21858 ft | 455 kts | 21° |
| 2026-05-05 03:39 | 31.32879 | -94.59581 | 22109 ft | 456 kts | 21° |
| 2026-05-05 03:39 | 31.35654 | -94.57767 | 22371 ft | 458 kts | 21° |
| 2026-05-05 03:40 | 31.38436 | -94.55947 | 22682 ft | 458 kts | 21° |
| 2026-05-05 03:40 | 31.41218 | -94.54125 | 22998 ft | 459 kts | 21° |
| 2026-05-05 03:40 | 31.44008 | -94.52299 | 23290 ft | 460 kts | 21° |
| 2026-05-05 03:40 | 31.46770 | -94.50489 | 23587 ft | 462 kts | 20° |
| 2026-05-05 03:41 | 31.49571 | -94.48619 | 23825 ft | 465 kts | 21° |
| 2026-05-05 03:41 | 31.52365 | -94.46687 | 24056 ft | 467 kts | 22° |
| 2026-05-05 03:41 | 31.55165 | -94.44736 | 24296 ft | 469 kts | 22° |
| 2026-05-05 03:41 | 31.57974 | -94.42776 | 24538 ft | 471 kts | 22° |
| 2026-05-05 03:42 | 31.60791 | -94.40810 | 24800 ft | 472 kts | 22° |
| 2026-05-05 03:42 | 31.63617 | -94.38838 | 25051 ft | 474 kts | 22° |
| 2026-05-05 03:42 | 31.66454 | -94.36858 | 25291 ft | 475 kts | 22° |
| 2026-05-05 03:42 | 31.69261 | -94.34897 | 25570 ft | 475 kts | 22° |
| 2026-05-05 03:43 | 31.72093 | -94.32916 | 25946 ft | 474 kts | 22° |
| 2026-05-05 03:43 | 31.74924 | -94.30935 | 26298 ft | 473 kts | 21° |
| 2026-05-05 03:43 | 31.77751 | -94.28956 | 26622 ft | 472 kts | 21° |
| 2026-05-05 03:43 | 31.80572 | -94.26980 | 26968 ft | 471 kts | 21° |
| 2026-05-05 03:44 | 31.83385 | -94.25009 | 27294 ft | 471 kts | 21° |
| 2026-05-05 03:44 | 31.86195 | -94.23038 | 27616 ft | 470 kts | 21° |
| 2026-05-05 03:44 | 31.89002 | -94.21069 | 27934 ft | 469 kts | 21° |
| 2026-05-05 03:44 | 31.91800 | -94.19104 | 28280 ft | 468 kts | 21° |
| 2026-05-05 03:45 | 31.94553 | -94.17168 | 28682 ft | 465 kts | 21° |
| 2026-05-05 03:45 | 31.97322 | -94.15219 | 29066 ft | 463 kts | 21° |
| 2026-05-05 03:45 | 32.00084 | -94.13276 | 29382 ft | 462 kts | 21° |
| 2026-05-05 03:45 | 32.02844 | -94.11333 | 29680 ft | 463 kts | 20° |
| 2026-05-05 03:46 | 32.05607 | -94.09388 | 29966 ft | 462 kts | 20° |
| 2026-05-05 03:46 | 32.08367 | -94.07442 | 30242 ft | 461 kts | 20° |
| 2026-05-05 03:46 | 32.11118 | -94.05500 | 30524 ft | 460 kts | 20° |
| 2026-05-05 03:46 | 32.13862 | -94.03562 | 30790 ft | 460 kts | 20° |
| 2026-05-05 03:47 | 32.19313 | -93.99710 | 30878 ft | 459 kts | 20° |
| 2026-05-05 03:47 | 32.24792 | -93.95832 | 30890 ft | 459 kts | 20° |
| 2026-05-05 03:48 | 32.30274 | -93.91946 | 30904 ft | 459 kts | 19° |
| 2026-05-05 03:48 | 32.35759 | -93.88052 | 30898 ft | 460 kts | 19° |
| 2026-05-05 03:49 | 32.41246 | -93.84150 | 30897 ft | 460 kts | 19° |
| 2026-05-05 03:49 | 32.46697 | -93.80269 | 30903 ft | 460 kts | 19° |
| 2026-05-05 03:50 | 32.52181 | -93.76358 | 30897 ft | 459 kts | 19° |
| 2026-05-05 03:50 | 32.57654 | -93.72450 | 30927 ft | 459 kts | 19° |
| 2026-05-05 03:51 | 32.63096 | -93.68559 | 30903 ft | 460 kts | 19° |
| 2026-05-05 03:51 | 32.68575 | -93.64636 | 30897 ft | 460 kts | 19° |
| 2026-05-05 03:52 | 32.74056 | -93.60705 | 30886 ft | 460 kts | 19° |
| 2026-05-05 03:52 | 32.79535 | -93.56770 | 30885 ft | 460 kts | 19° |
| 2026-05-05 03:53 | 32.85014 | -93.52829 | 30906 ft | 460 kts | 19° |
| 2026-05-05 03:53 | 32.90450 | -93.48914 | 30880 ft | 460 kts | 19° |
| 2026-05-05 03:54 | 32.95924 | -93.44966 | 30871 ft | 460 kts | 19° |
| 2026-05-05 03:54 | 33.01407 | -93.41049 | 30862 ft | 458 kts | 18° |
| 2026-05-05 03:55 | 33.06927 | -93.37260 | 30877 ft | 458 kts | 17° |
| 2026-05-05 03:55 | 33.12420 | -93.33523 | 30912 ft | 458 kts | 17° |
| 2026-05-05 03:56 | 33.17943 | -93.29748 | 30888 ft | 458 kts | 18° |
| 2026-05-05 03:56 | 33.23459 | -93.25960 | 30887 ft | 457 kts | 18° |
| 2026-05-05 03:57 | 33.28975 | -93.22162 | 30888 ft | 458 kts | 18° |
| 2026-05-05 03:57 | 33.34492 | -93.18358 | 30885 ft | 458 kts | 18° |
| 2026-05-05 03:58 | 33.39968 | -93.14577 | 30880 ft | 458 kts | 18° |
| 2026-05-05 03:58 | 33.45484 | -93.10763 | 30873 ft | 458 kts | 18° |
| 2026-05-05 03:59 | 33.50998 | -93.06945 | 30866 ft | 458 kts | 18° |
| 2026-05-05 03:59 | 33.56474 | -93.03146 | 30872 ft | 457 kts | 18° |
| 2026-05-05 04:00 | 33.61962 | -92.99332 | 30872 ft | 456 kts | 18° |
| 2026-05-05 04:00 | 33.67450 | -92.95516 | 30875 ft | 456 kts | 18° |
| 2026-05-05 04:01 | 33.72935 | -92.91696 | 30867 ft | 456 kts | 18° |
| 2026-05-05 04:01 | 33.78416 | -92.87874 | 30869 ft | 456 kts | 18° |
| 2026-05-05 04:02 | 33.83861 | -92.84069 | 30872 ft | 456 kts | 18° |
| 2026-05-05 04:02 | 33.89343 | -92.80233 | 30868 ft | 456 kts | 18° |
| 2026-05-05 04:03 | 33.94819 | -92.76395 | 30870 ft | 455 kts | 18° |
| 2026-05-05 04:03 | 34.00278 | -92.72561 | 30869 ft | 454 kts | 18° |
| 2026-05-05 04:04 | 34.05699 | -92.68752 | 30868 ft | 454 kts | 18° |
| 2026-05-05 04:04 | 34.11151 | -92.64916 | 30868 ft | 453 kts | 18° |
| 2026-05-05 04:05 | 34.16600 | -92.61074 | 30866 ft | 453 kts | 18° |
| 2026-05-05 04:05 | 34.22049 | -92.57228 | 30870 ft | 454 kts | 18° |
| 2026-05-05 04:06 | 34.27515 | -92.53365 | 30870 ft | 455 kts | 18° |
| 2026-05-05 04:06 | 34.32946 | -92.49517 | 30866 ft | 456 kts | 18° |
| 2026-05-05 04:07 | 34.38416 | -92.45636 | 30870 ft | 456 kts | 18° |
| 2026-05-05 04:07 | 34.43882 | -92.41752 | 30866 ft | 456 kts | 18° |
| 2026-05-05 04:08 | 34.49354 | -92.37860 | 30888 ft | 457 kts | 18° |
| 2026-05-05 04:08 | 34.54802 | -92.33980 | 30886 ft | 457 kts | 18° |
| 2026-05-05 04:09 | 34.60288 | -92.30064 | 30892 ft | 458 kts | 18° |
| 2026-05-05 04:09 | 34.65772 | -92.26144 | 30897 ft | 457 kts | 18° |
| 2026-05-05 04:10 | 34.71243 | -92.22224 | 30901 ft | 457 kts | 18° |
| 2026-05-05 04:10 | 34.76716 | -92.18301 | 30898 ft | 457 kts | 18° |
| 2026-05-05 04:11 | 34.82279 | -92.15048 | 30888 ft | 434 kts | 5° |
| 2026-05-05 04:11 | 34.88049 | -92.13087 | 30888 ft | 428 kts | 1° |
| 2026-05-05 04:12 | 34.93827 | -92.11388 | 30888 ft | 427 kts | 1° |
| 2026-05-05 04:12 | 34.99610 | -92.09732 | 30896 ft | 427 kts | 0° |
| 2026-05-05 04:13 | 35.05362 | -92.08063 | 30882 ft | 428 kts | 1° |
| 2026-05-05 04:13 | 35.11160 | -92.06359 | 30875 ft | 429 kts | 1° |
| 2026-05-05 04:14 | 35.16955 | -92.04646 | 30859 ft | 428 kts | 1° |
| 2026-05-05 04:14 | 35.22751 | -92.02931 | 30859 ft | 429 kts | 1° |
| 2026-05-05 04:15 | 35.28518 | -92.01226 | 30859 ft | 430 kts | 1° |
| 2026-05-05 04:15 | 35.34339 | -91.99501 | 30858 ft | 430 kts | 1° |
| 2026-05-05 04:16 | 35.40159 | -91.97772 | 30861 ft | 430 kts | 1° |
| 2026-05-05 04:16 | 35.45982 | -91.96041 | 30861 ft | 431 kts | 1° |
| 2026-05-05 04:17 | 35.51766 | -91.94320 | 30862 ft | 431 kts | 1° |
| 2026-05-05 04:17 | 35.57615 | -91.92580 | 30857 ft | 433 kts | 1° |
| 2026-05-05 04:18 | 35.63467 | -91.90832 | 30871 ft | 433 kts | 1° |
| 2026-05-05 04:18 | 35.69320 | -91.89079 | 30855 ft | 433 kts | 2° |
| 2026-05-05 04:19 | 35.75135 | -91.87337 | 30898 ft | 433 kts | 2° |
| 2026-05-05 04:19 | 35.81004 | -91.85580 | 30874 ft | 435 kts | 2° |
| 2026-05-05 04:20 | 35.86889 | -91.83811 | 30844 ft | 435 kts | 2° |
| 2026-05-05 04:20 | 35.92773 | -91.82040 | 30845 ft | 435 kts | 2° |
| 2026-05-05 04:21 | 35.98656 | -91.80267 | 30840 ft | 435 kts | 2° |
| 2026-05-05 04:21 | 36.04504 | -91.78501 | 30834 ft | 435 kts | 2° |
| 2026-05-05 04:22 | 36.10389 | -91.76722 | 30834 ft | 435 kts | 2° |
| 2026-05-05 04:22 | 36.16272 | -91.74941 | 30833 ft | 435 kts | 2° |
| 2026-05-05 04:23 | 36.22159 | -91.73156 | 30838 ft | 435 kts | 2° |
| 2026-05-05 04:23 | 36.28056 | -91.71380 | 30838 ft | 438 kts | 3° |
| 2026-05-05 04:24 | 36.33954 | -91.69624 | 30836 ft | 439 kts | 3° |
| 2026-05-05 04:25 | 36.42872 | -91.66961 | 30838 ft | 440 kts | 3° |
| 2026-05-05 04:25 | 36.48819 | -91.65182 | 30834 ft | 439 kts | 3° |
| 2026-05-05 04:26 | 36.54768 | -91.63401 | 30826 ft | 440 kts | 3° |
| 2026-05-05 04:26 | 36.60684 | -91.61627 | 30826 ft | 440 kts | 3° |
| 2026-05-05 04:27 | 36.66645 | -91.59836 | 30819 ft | 441 kts | 3° |
| 2026-05-05 04:27 | 36.72604 | -91.58042 | 30820 ft | 441 kts | 3° |
| 2026-05-05 04:28 | 36.78565 | -91.56246 | 30813 ft | 441 kts | 4° |
| 2026-05-05 04:28 | 36.84494 | -91.54455 | 30805 ft | 442 kts | 4° |
| 2026-05-05 04:29 | 36.90467 | -91.52648 | 30824 ft | 441 kts | 3° |
| 2026-05-05 04:29 | 36.96437 | -91.50843 | 30807 ft | 441 kts | 4° |
| 2026-05-05 04:30 | 37.02412 | -91.49030 | 30810 ft | 443 kts | 5° |
| 2026-05-05 04:30 | 37.08370 | -91.47219 | 30810 ft | 444 kts | 5° |
| 2026-05-05 04:31 | 37.14376 | -91.45391 | 30800 ft | 444 kts | 5° |
| 2026-05-05 04:31 | 37.20379 | -91.43560 | 30802 ft | 444 kts | 5° |
| 2026-05-05 04:32 | 37.26389 | -91.41727 | 30801 ft | 445 kts | 6° |
| 2026-05-05 04:32 | 37.32420 | -91.39882 | 30795 ft | 446 kts | 6° |
| 2026-05-05 04:33 | 37.38458 | -91.38032 | 30800 ft | 446 kts | 6° |
| 2026-05-05 04:33 | 37.44454 | -91.36192 | 30798 ft | 447 kts | 6° |
| 2026-05-05 04:34 | 37.50486 | -91.34337 | 30803 ft | 445 kts | 7° |
| 2026-05-05 04:34 | 37.56502 | -91.32485 | 30793 ft | 445 kts | 7° |
| 2026-05-05 04:35 | 37.62513 | -91.30632 | 30788 ft | 445 kts | 7° |
| 2026-05-05 04:35 | 37.68487 | -91.28787 | 30787 ft | 445 kts | 7° |
| 2026-05-05 04:36 | 37.74497 | -91.26926 | 30788 ft | 444 kts | 7° |
| 2026-05-05 04:36 | 37.80482 | -91.25071 | 30786 ft | 443 kts | 7° |
| 2026-05-05 04:37 | 37.86466 | -91.23215 | 30777 ft | 443 kts | 7° |
| 2026-05-05 04:37 | 37.92402 | -91.21369 | 30776 ft | 442 kts | 7° |
| 2026-05-05 04:38 | 37.98384 | -91.19507 | 30793 ft | 443 kts | 8° |
| 2026-05-05 04:38 | 38.04372 | -91.17638 | 30793 ft | 443 kts | 8° |
| 2026-05-05 04:39 | 38.10362 | -91.15765 | 30800 ft | 443 kts | 8° |
| 2026-05-05 04:39 | 38.16350 | -91.13891 | 30807 ft | 444 kts | 8° |
| 2026-05-05 04:40 | 38.22342 | -91.12014 | 30805 ft | 450 kts | 8° |
| 2026-05-05 04:40 | 38.28438 | -91.10099 | 30805 ft | 452 kts | 8° |
| 2026-05-05 04:41 | 38.34553 | -91.08173 | 30782 ft | 452 kts | 8° |
| 2026-05-05 04:41 | 38.40663 | -91.06247 | 30740 ft | 452 kts | 8° |
| 2026-05-05 04:42 | 38.46733 | -91.04330 | 30741 ft | 452 kts | 8° |
| 2026-05-05 04:42 | 38.52846 | -91.02396 | 30738 ft | 452 kts | 8° |
| 2026-05-05 04:43 | 38.58952 | -91.00461 | 30740 ft | 452 kts | 8° |
| 2026-05-05 04:43 | 38.65060 | -90.98523 | 30748 ft | 452 kts | 8° |
| 2026-05-05 04:44 | 38.71133 | -90.96195 | 30740 ft | 460 kts | 17° |
| 2026-05-05 04:44 | 38.77018 | -90.93060 | 30732 ft | 462 kts | 18° |
| 2026-05-05 04:45 | 38.82933 | -90.89844 | 30735 ft | 462 kts | 18° |
| 2026-05-05 04:45 | 38.88847 | -90.86632 | 30730 ft | 462 kts | 18° |
| 2026-05-05 04:46 | 38.94775 | -90.83410 | 30722 ft | 464 kts | 17° |
| 2026-05-05 04:46 | 39.00679 | -90.80196 | 30722 ft | 464 kts | 18° |
| 2026-05-05 04:47 | 39.06622 | -90.76955 | 30717 ft | 464 kts | 18° |
| 2026-05-05 04:47 | 39.12574 | -90.73704 | 30752 ft | 466 kts | 17° |
| 2026-05-05 04:48 | 39.18570 | -90.70424 | 30718 ft | 470 kts | 17° |
| 2026-05-05 04:48 | 39.24544 | -90.67148 | 30709 ft | 470 kts | 17° |
| 2026-05-05 04:49 | 39.30562 | -90.63842 | 30701 ft | 470 kts | 17° |
| 2026-05-05 04:49 | 39.36579 | -90.60529 | 30710 ft | 470 kts | 16° |
| 2026-05-05 04:50 | 39.42575 | -90.57220 | 30707 ft | 468 kts | 17° |
| 2026-05-05 04:50 | 39.48486 | -90.53808 | 30712 ft | 469 kts | 18° |
| 2026-05-05 04:51 | 39.54428 | -90.50334 | 30708 ft | 468 kts | 18° |
| 2026-05-05 04:51 | 39.60364 | -90.46861 | 30712 ft | 468 kts | 18° |
| 2026-05-05 04:52 | 39.66295 | -90.43386 | 30700 ft | 467 kts | 18° |
| 2026-05-05 04:52 | 39.72216 | -90.39911 | 30704 ft | 467 kts | 18° |
| 2026-05-05 04:53 | 39.78102 | -90.36451 | 30709 ft | 469 kts | 18° |
| 2026-05-05 04:53 | 39.84065 | -90.32940 | 30711 ft | 471 kts | 18° |
| 2026-05-05 04:54 | 39.90032 | -90.29418 | 30704 ft | 471 kts | 19° |
| 2026-05-05 04:54 | 39.95906 | -90.25583 | 30693 ft | 478 kts | 28° |
| 2026-05-05 04:55 | 40.00275 | -90.21094 | 30689 ft | 483 kts | 36° |
| 2026-05-05 04:55 | 40.06194 | -90.14425 | 30678 ft | 484 kts | 36° |
| 2026-05-05 04:56 | 40.11286 | -90.08680 | 30667 ft | 484 kts | 36° |
| 2026-05-05 04:56 | 40.16382 | -90.02930 | 30667 ft | 484 kts | 36° |
| 2026-05-05 04:57 | 40.20615 | -89.98148 | 30657 ft | 484 kts | 36° |
| 2026-05-05 04:57 | 40.25713 | -89.92379 | 30700 ft | 485 kts | 36° |
| 2026-05-05 04:58 | 40.31637 | -89.85660 | 30676 ft | 485 kts | 36° |
| 2026-05-05 04:58 | 40.35871 | -89.80848 | 30679 ft | 485 kts | 37° |
| 2026-05-05 04:59 | 40.40961 | -89.75052 | 30687 ft | 485 kts | 37° |
| 2026-05-05 04:59 | 40.43495 | -89.72160 | 30380 ft | 481 kts | 37° |
| 2026-05-05 04:59 | 40.46022 | -89.69274 | 29623 ft | 481 kts | 37° |
| 2026-05-05 04:59 | 40.48555 | -89.66382 | 28892 ft | 485 kts | 37° |
| 2026-05-05 05:00 | 40.51113 | -89.63459 | 28130 ft | 490 kts | 37° |
| 2026-05-05 05:00 | 40.53693 | -89.60505 | 27435 ft | 493 kts | 37° |
| 2026-05-05 05:00 | 40.56281 | -89.57538 | 26806 ft | 495 kts | 37° |
| 2026-05-05 05:00 | 40.58880 | -89.54555 | 26222 ft | 497 kts | 37° |
| 2026-05-05 05:01 | 40.61451 | -89.51600 | 25661 ft | 498 kts | 37° |
| 2026-05-05 05:01 | 40.64065 | -89.48594 | 25113 ft | 500 kts | 37° |
| 2026-05-05 05:01 | 40.66686 | -89.45576 | 24557 ft | 501 kts | 38° |
| 2026-05-05 05:01 | 40.69312 | -89.42549 | 24055 ft | 502 kts | 38° |
| 2026-05-05 05:02 | 40.71939 | -89.39517 | 23777 ft | 502 kts | 38° |
| 2026-05-05 05:02 | 40.74555 | -89.36471 | 23699 ft | 501 kts | 38° |
| 2026-05-05 05:02 | 40.77126 | -89.33421 | 23118 ft | 495 kts | 39° |
| 2026-05-05 05:02 | 40.79666 | -89.30391 | 22261 ft | 490 kts | 39° |
| 2026-05-05 05:03 | 40.82178 | -89.27390 | 21554 ft | 484 kts | 38° |
| 2026-05-05 05:03 | 40.84635 | -89.24454 | 20947 ft | 481 kts | 38° |
| 2026-05-05 05:03 | 40.87112 | -89.21495 | 20376 ft | 479 kts | 38° |
| 2026-05-05 05:03 | 40.89578 | -89.18545 | 19808 ft | 476 kts | 38° |
| 2026-05-05 05:04 | 40.92026 | -89.15614 | 19255 ft | 473 kts | 38° |
| 2026-05-05 05:04 | 40.94453 | -89.12705 | 18718 ft | 469 kts | 38° |
| 2026-05-05 05:04 | 40.96860 | -89.09818 | 18241 ft | 465 kts | 38° |
| 2026-05-05 05:04 | 40.99247 | -89.06954 | 17738 ft | 462 kts | 38° |
| 2026-05-05 05:05 | 41.01615 | -89.04109 | 17202 ft | 458 kts | 38° |
| 2026-05-05 05:05 | 41.03935 | -89.01318 | 16687 ft | 455 kts | 38° |
| 2026-05-05 05:05 | 41.06266 | -88.98510 | 16172 ft | 451 kts | 38° |
| 2026-05-05 05:05 | 41.08576 | -88.95725 | 15665 ft | 447 kts | 38° |
| 2026-05-05 05:06 | 41.10864 | -88.92963 | 15168 ft | 443 kts | 38° |
| 2026-05-05 05:06 | 41.13131 | -88.90223 | 14767 ft | 439 kts | 38° |
| 2026-05-05 05:06 | 41.15381 | -88.87503 | 14359 ft | 436 kts | 38° |
| 2026-05-05 05:06 | 41.17618 | -88.84796 | 14088 ft | 435 kts | 38° |
| 2026-05-05 05:07 | 41.19850 | -88.82092 | 14042 ft | 434 kts | 38° |
| 2026-05-05 05:07 | 41.22044 | -88.79433 | 14032 ft | 433 kts | 38° |
| 2026-05-05 05:07 | 41.24269 | -88.76735 | 14036 ft | 433 kts | 38° |
| 2026-05-05 05:07 | 41.26470 | -88.74060 | 13678 ft | 425 kts | 38° |
| 2026-05-05 05:08 | 41.28646 | -88.71414 | 12844 ft | 423 kts | 38° |
| 2026-05-05 05:08 | 41.30810 | -88.68783 | 12028 ft | 419 kts | 38° |
| 2026-05-05 05:08 | 41.32950 | -88.66177 | 11380 ft | 416 kts | 38° |
| 2026-05-05 05:08 | 41.35081 | -88.63581 | 11091 ft | 415 kts | 38° |
| 2026-05-05 05:09 | 41.37216 | -88.60990 | 11024 ft | 415 kts | 37° |
| 2026-05-05 05:09 | 41.39363 | -88.58431 | 11026 ft | 414 kts | 37° |
| 2026-05-05 05:09 | 41.41483 | -88.55917 | 11026 ft | 414 kts | 37° |
| 2026-05-05 05:09 | 41.43634 | -88.53366 | 11021 ft | 414 kts | 37° |
| 2026-05-05 05:10 | 41.45781 | -88.50816 | 11018 ft | 414 kts | 37° |
| 2026-05-05 05:10 | 41.47929 | -88.48260 | 11020 ft | 414 kts | 37° |
| 2026-05-05 05:10 | 41.50074 | -88.45706 | 11032 ft | 414 kts | 37° |
| 2026-05-05 05:10 | 41.52216 | -88.43153 | 10925 ft | 410 kts | 37° |
| 2026-05-05 05:11 | 41.54328 | -88.40632 | 10520 ft | 407 kts | 37° |
| 2026-05-05 05:11 | 41.56448 | -88.38101 | 10348 ft | 410 kts | 37° |
| 2026-05-05 05:11 | 41.58575 | -88.35561 | 10156 ft | 410 kts | 37° |
| 2026-05-05 05:11 | 41.60671 | -88.33053 | 9962 ft | 407 kts | 37° |
| 2026-05-05 05:12 | 41.62729 | -88.30592 | 9763 ft | 387 kts | 37° |
| 2026-05-05 05:12 | 41.64693 | -88.28248 | 9499 ft | 371 kts | 37° |
| 2026-05-05 05:12 | 41.66577 | -88.26002 | 9247 ft | 355 kts | 37° |
| 2026-05-05 05:12 | 41.68380 | -88.23854 | 9018 ft | 340 kts | 37° |
| 2026-05-05 05:13 | 41.70109 | -88.21794 | 8758 ft | 326 kts | 37° |
| 2026-05-05 05:13 | 41.71774 | -88.19810 | 8491 ft | 315 kts | 37° |
| 2026-05-05 05:13 | 41.73382 | -88.17893 | 8302 ft | 306 kts | 37° |
| 2026-05-05 05:13 | 41.74947 | -88.16029 | 8122 ft | 305 kts | 37° |
| 2026-05-05 05:14 | 41.76533 | -88.14140 | 7968 ft | 305 kts | 37° |
| 2026-05-05 05:14 | 41.78117 | -88.12250 | 7810 ft | 305 kts | 37° |
| 2026-05-05 05:14 | 41.79694 | -88.10365 | 7633 ft | 303 kts | 38° |
| 2026-05-05 05:14 | 41.81233 | -88.08430 | 7456 ft | 303 kts | 40° |
| 2026-05-05 05:15 | 41.82733 | -88.06458 | 7259 ft | 301 kts | 41° |
| 2026-05-05 05:15 | 41.84223 | -88.04483 | 7083 ft | 300 kts | 41° |
| 2026-05-05 05:15 | 41.85700 | -88.02510 | 6893 ft | 299 kts | 43° |
| 2026-05-05 05:15 | 41.87027 | -88.00355 | 6659 ft | 300 kts | 54° |
| 2026-05-05 05:16 | 41.87959 | -87.97895 | 6437 ft | 301 kts | 70° |
| 2026-05-05 05:16 | 41.88413 | -87.95170 | 6235 ft | 299 kts | 85° |
| 2026-05-05 05:16 | 41.88497 | -87.92391 | 6021 ft | 297 kts | 90° |
| 2026-05-05 05:16 | 41.88488 | -87.89627 | 5797 ft | 295 kts | 91° |
| 2026-05-05 05:17 | 41.88469 | -87.86882 | 5561 ft | 293 kts | 90° |
| 2026-05-05 05:17 | 41.88454 | -87.84159 | 5335 ft | 291 kts | 90° |
| 2026-05-05 05:17 | 41.88443 | -87.81456 | 5118 ft | 288 kts | 89° |
| 2026-05-05 05:17 | 41.88436 | -87.78778 | 4894 ft | 284 kts | 89° |
| 2026-05-05 05:18 | 41.88430 | -87.76179 | 4659 ft | 274 kts | 88° |
| 2026-05-05 05:18 | 41.88426 | -87.73704 | 4432 ft | 264 kts | 88° |
| 2026-05-05 05:18 | 41.88421 | -87.71278 | 4193 ft | 256 kts | 87° |
| 2026-05-05 05:18 | 41.88417 | -87.68905 | 3819 ft | 255 kts | 89° |
| 2026-05-05 05:19 | 41.88414 | -87.66530 | 3714 ft | 253 kts | 88° |
| 2026-05-05 05:19 | 41.88411 | -87.64167 | 3806 ft | 253 kts | 88° |
| 2026-05-05 05:19 | 41.88462 | -87.61827 | 3813 ft | 245 kts | 79° |
| 2026-05-05 05:19 | 41.88952 | -87.59747 | 3792 ft | 227 kts | 56° |
| 2026-05-05 05:20 | 41.89964 | -87.58208 | 3803 ft | 217 kts | 28° |
| 2026-05-05 05:20 | 41.91329 | -87.57537 | 3800 ft | 206 kts | 359° |
| 2026-05-05 05:20 | 41.92691 | -87.57806 | 3799 ft | 199 kts | 332° |
| 2026-05-05 05:20 | 41.93798 | -87.58868 | 3806 ft | 196 kts | 315° |
| 2026-05-05 05:21 | 41.94787 | -87.60131 | 3805 ft | 197 kts | 314° |
| 2026-05-05 05:21 | 41.95772 | -87.61412 | 3804 ft | 197 kts | 314° |
| 2026-05-05 05:21 | 41.96765 | -87.62681 | 3809 ft | 197 kts | 316° |
| 2026-05-05 05:21 | 41.97767 | -87.63948 | 3797 ft | 198 kts | 314° |
| 2026-05-05 05:22 | 41.98443 | -87.65467 | 3800 ft | 182 kts | 294° |
| 2026-05-05 05:22 | 41.98754 | -87.67068 | 3787 ft | 176 kts | 279° |
| 2026-05-05 05:22 | 41.98812 | -87.68687 | 3624 ft | 176 kts | 274° |
| 2026-05-05 05:22 | 41.98820 | -87.70323 | 3378 ft | 174 kts | 274° |
| 2026-05-05 05:23 | 41.98826 | -87.71949 | 3127 ft | 174 kts | 275° |
| 2026-05-05 05:23 | 41.98828 | -87.73586 | 2896 ft | 175 kts | 276° |
| 2026-05-05 05:23 | 41.98829 | -87.75203 | 2661 ft | 171 kts | 276° |
| 2026-05-05 05:23 | 41.98830 | -87.76798 | 2439 ft | 171 kts | 276° |
| 2026-05-05 05:24 | 41.98830 | -87.78384 | 2200 ft | 168 kts | 277° |
| 2026-05-05 05:24 | 41.98828 | -87.79869 | 1970 ft | 153 kts | 277° |
| 2026-05-05 05:24 | 41.98829 | -87.81226 | 1815 ft | 140 kts | 277° |
| 2026-05-05 05:24 | 41.98832 | -87.82526 | 1622 ft | 139 kts | 277° |
| 2026-05-05 05:25 | 41.98833 | -87.83831 | 1458 ft | 141 kts | 275° |
| 2026-05-05 05:25 | 41.98834 | -87.85142 | 1278 ft | 140 kts | 272° |
| 2026-05-05 05:25 | 41.98828 | -87.86441 | 1094 ft | 138 kts | 272° |
| 2026-05-05 05:25 | 41.98834 | -87.87732 | 923 ft | 137 kts | 270° |
| 2026-05-05 05:26 | 41.98829 | -87.89007 | 731 ft | 136 kts | 272° |
| 2026-05-05 05:26 | 41.98833 | -87.90204 | 673 ft | 121 kts | 271° |